Time;durP1;ratioP1;P1;durP2;ratioP2;P2;SDS_P1;SDS_P2;PMS_P1;PMS_P2;Temp;Humidity;BMP_temperature;BMP_pressure;BME280_temperature;BME280_humidity;BME280_pressure;Samples;Min_cycle;Max_cycle;Signal;HPM_P1;HPM_P2
2021/07/27 00:01:07;;;;;;;3.83;3.33;;;;;;;20.70;100.00;96896.72;5055940;28;20623;-84
2021/07/27 00:03:37;;;;;;;3.93;3.20;;;;;;;20.35;100.00;96895.06;5055936;28;20193;-85
2021/07/27 00:06:04;;;;;;;4.37;3.13;;;;;;;20.39;100.00;96906.16;5055851;28;20205;-84
2021/07/27 00:08:32;;;;;;;4.00;3.60;;;;;;;20.32;100.00;96903.47;5055859;28;20670;-84
2021/07/27 00:11:00;;;;;;;3.40;3.10;;;;;;;20.36;100.00;96906.56;5055678;28;20756;-84
2021/07/27 00:13:27;;;;;;;5.37;3.47;;;;;;;20.30;100.00;96902.06;5055424;28;20316;-84
2021/07/27 00:15:55;;;;;;;3.90;3.60;;;;;;;20.03;100.00;96899.34;5055488;28;20201;-84
2021/07/27 00:18:22;;;;;;;4.73;3.30;;;;;;;20.01;100.00;96904.03;5055312;28;20684;-84
2021/07/27 00:20:50;;;;;;;4.13;3.73;;;;;;;20.06;100.00;96906.13;5055488;28;20202;-84
2021/07/27 00:23:18;;;;;;;3.40;3.10;;;;;;;20.24;100.00;96905.53;5055276;28;20227;-84
2021/07/27 00:25:45;;;;;;;3.63;3.33;;;;;;;20.30;100.00;96905.53;5055302;28;20208;-84
2021/07/27 00:28:12;;;;;;;3.93;3.40;;;;;;;20.30;100.00;96902.06;5055174;28;20202;-85
2021/07/27 00:30:39;;;;;;;19.37;4.60;;;;;;;20.26;100.00;96895.44;5055603;28;20252;-83
2021/07/27 00:33:07;;;;;;;3.70;3.40;;;;;;;20.07;100.00;96897.91;5055183;28;20225;-84
2021/07/27 00:35:34;;;;;;;3.27;3.07;;;;;;;19.93;100.00;96889.06;5055352;28;20229;-85
2021/07/27 00:38:09;;;;;;;3.73;3.10;;;;;;;19.98;100.00;96892.97;5054999;28;20241;-84
2021/07/27 00:40:36;;;;;;;3.67;3.30;;;;;;;20.21;100.00;96892.59;5055289;28;20185;-84
2021/07/27 00:43:06;;;;;;;7.03;3.80;;;;;;;20.25;100.00;96891.16;5054913;28;20197;-84
2021/07/27 00:45:33;;;;;;;4.40;3.57;;;;;;;20.13;100.00;96891.75;5055263;28;20271;-84
2021/07/27 00:48:01;;;;;;;3.93;3.40;;;;;;;20.15;100.00;96891.53;5054692;28;20287;-85
2021/07/27 00:50:29;;;;;;;4.07;3.77;;;;;;;20.02;100.00;96889.69;5054977;28;20666;-84
2021/07/27 00:52:58;;;;;;;6.23;3.40;;;;;;;20.01;100.00;96887.22;5054728;28;20232;-84
2021/07/27 00:55:28;;;;;;;6.57;3.53;;;;;;;19.92;100.00;96884.75;5054771;28;20202;-83
2021/07/27 00:57:55;;;;;;;5.87;3.13;;;;;;;19.86;100.00;96879.41;5054621;28;20229;-84
2021/07/27 01:00:24;;;;;;;3.57;3.17;;;;;;;19.79;100.00;96884.72;5054805;28;20284;-83
2021/07/27 01:02:51;;;;;;;4.43;4.13;;;;;;;19.91;100.00;96888.44;5054568;28;20248;-84
2021/07/27 01:05:19;;;;;;;4.47;3.60;;;;;;;19.96;100.00;96887.84;5054507;28;20237;-84
2021/07/27 01:07:46;;;;;;;3.83;3.53;;;;;;;19.68;100.00;96894.13;5054532;28;20190;-84
2021/07/27 01:10:16;;;;;;;3.87;3.50;;;;;;;19.67;100.00;96902.31;5054594;28;20198;-83
2021/07/27 01:12:46;;;;;;;4.03;3.70;;;;;;;19.77;100.00;96896.59;5054304;28;20317;-84
2021/07/27 01:15:14;;;;;;;5.37;3.67;;;;;;;19.71;100.00;96893.72;5055173;28;20559;-83
2021/07/27 01:17:42;;;;;;;8.53;3.43;;;;;;;19.65;100.00;96886.53;5054223;28;20241;-84
2021/07/27 01:20:17;;;;;;;5.03;4.07;;;;;;;19.73;100.00;96890.03;5054404;28;20642;-84
2021/07/27 01:39:33;;;;;;;3.50;3.20;;;;;;;19.41;100.00;96887.03;5054232;28;20266;-84
2021/07/27 01:42:06;;;;;;;4.23;3.93;;;;;;;19.35;100.00;96885.16;5053983;28;20189;-84
2021/07/27 01:44:35;;;;;;;6.77;3.77;;;;;;;19.37;100.00;96889.28;5054262;28;20198;-84
2021/07/27 01:47:02;;;;;;;3.77;3.43;;;;;;;19.30;100.00;96890.25;5053745;28;20315;-84
2021/07/27 01:49:29;;;;;;;6.77;3.67;;;;;;;19.40;100.00;96888.88;5054130;28;20645;-84
2021/07/27 01:51:57;;;;;;;4.40;4.00;;;;;;;19.46;100.00;96885.38;5053265;28;20666;-84
2021/07/27 01:57:06;;;;;;;4.20;3.47;;;;;;;19.31;100.00;96881.25;5053470;28;20617;-83
2021/07/27 01:59:33;;;;;;;3.20;3.00;;;;;;;19.37;100.00;96880.44;5053459;28;20259;-84
2021/07/27 02:02:01;;;;;;;3.90;3.60;;;;;;;19.65;100.00;96878.53;5053806;28;20225;-83
2021/07/27 02:04:28;;;;;;;3.90;3.60;;;;;;;19.49;100.00;96882.31;5053692;28;20229;-82
2021/07/27 02:06:55;;;;;;;6.33;3.90;;;;;;;19.48;100.00;96882.53;5053757;28;20236;-84
2021/07/27 02:09:22;;;;;;;3.60;3.30;;;;;;;19.36;100.00;96889.44;5053527;28;20198;-84
2021/07/27 02:11:54;;;;;;;3.80;3.50;;;;;;;19.08;100.00;96894.84;5052924;28;20241;-84
2021/07/27 02:14:24;;;;;;;4.03;3.33;;;;;;;18.73;100.00;96893.00;5053669;28;20214;-84
2021/07/27 02:16:51;;;;;;;6.10;4.23;;;;;;;18.80;100.00;96876.25;5053234;28;20197;-84
2021/07/27 02:19:19;;;;;;;3.90;3.60;;;;;;;18.76;100.00;96879.31;5053368;28;20204;-84
2021/07/27 02:21:46;;;;;;;9.47;3.50;;;;;;;18.97;100.00;96878.41;5052376;28;20205;-84
2021/07/27 02:24:13;;;;;;;4.53;3.10;;;;;;;19.07;100.00;96880.72;5053571;28;20197;-84
2021/07/27 02:26:41;;;;;;;5.13;3.47;;;;;;;19.09;100.00;96886.69;5053230;28;20248;-83
2021/07/27 02:29:08;;;;;;;3.63;3.30;;;;;;;19.08;100.00;96886.84;5053381;28;20635;-84
2021/07/27 02:31:42;;;;;;;10.17;3.87;;;;;;;19.16;100.00;96889.38;5053006;28;20202;-83
2021/07/27 02:34:10;;;;;;;6.87;5.00;;;;;;;18.95;100.00;96884.97;5053329;28;20209;-84
2021/07/27 02:36:37;;;;;;;4.63;3.57;;;;;;;18.87;100.00;96890.44;5053081;28;20280;-84
2021/07/27 02:39:06;;;;;;;11.33;4.97;;;;;;;18.81;100.00;96889.38;5053290;28;20238;-84
2021/07/27 02:41:35;;;;;;;4.40;3.67;;;;;;;18.74;100.00;96884.03;5052472;28;20732;-84
2021/07/27 02:44:03;;;;;;;4.33;3.67;;;;;;;18.70;100.00;96885.41;5052947;28;20193;-84
2021/07/27 02:46:31;;;;;;;3.90;3.53;;;;;;;18.83;100.00;96876.69;5052695;28;20202;-84
2021/07/27 02:49:03;;;;;;;5.37;3.73;;;;;;;18.75;100.00;96877.66;5052642;28;20229;-84
2021/07/27 02:51:31;;;;;;;4.37;3.97;;;;;;;18.61;100.00;96877.75;5052730;28;20190;-84
2021/07/27 02:53:59;;;;;;;4.83;4.03;;;;;;;18.43;100.00;96875.56;5052620;28;20276;-84
2021/07/27 02:56:27;;;;;;;3.83;3.53;;;;;;;18.68;100.00;96875.94;5052717;28;20624;-83
2021/07/27 02:58:54;;;;;;;6.63;4.10;;;;;;;18.77;100.00;96885.44;5052412;28;20249;-84
2021/07/27 03:01:22;;;;;;;5.50;4.20;;;;;;;18.65;100.00;96882.47;5052190;28;20197;-83
2021/07/27 03:03:50;;;;;;;6.37;4.43;;;;;;;18.60;100.00;96878.75;5052435;28;20296;-84
2021/07/27 03:06:19;;;;;;;10.83;4.07;;;;;;;18.64;100.00;96872.84;5052412;28;20251;-83
2021/07/27 03:09:02;;;;;;;5.47;4.00;;;;;;;18.59;100.00;96872.59;5052080;28;20267;-83
2021/07/27 03:11:30;;;;;;;4.27;3.87;;;;;;;18.58;100.00;96878.94;5052148;28;20186;-84
2021/07/27 03:13:57;;;;;;;4.23;3.67;;;;;;;18.44;100.00;96874.53;5052625;28;20604;-83
2021/07/27 03:16:26;;;;;;;6.40;4.10;;;;;;;18.66;100.00;96878.78;5052027;28;20304;-83
2021/07/27 03:18:53;;;;;;;5.23;4.20;;;;;;;18.65;100.00;96873.66;5052142;28;20190;-84
2021/07/27 03:21:24;;;;;;;13.77;4.83;;;;;;;18.65;100.00;96871.84;5051803;28;20284;-84
2021/07/27 03:23:52;;;;;;;8.67;5.30;;;;;;;18.64;100.00;96874.69;5052918;28;20219;-84
2021/07/27 03:26:20;;;;;;;8.63;4.37;;;;;;;18.58;100.00;96872.81;5053350;28;20190;-84
2021/07/27 03:28:48;;;;;;;5.67;4.07;;;;;;;18.69;100.00;96881.06;5052310;28;20197;-84
2021/07/27 03:31:15;;;;;;;5.10;4.60;;;;;;;18.56;100.00;96883.63;5051773;28;20316;-84
2021/07/27 03:33:43;;;;;;;5.90;4.73;;;;;;;18.63;100.00;96881.03;5051373;28;20221;-84
2021/07/27 03:36:10;;;;;;;6.80;4.60;;;;;;;18.50;100.00;96876.44;5051975;28;20198;-84
2021/07/27 03:38:39;;;;;;;6.27;4.30;;;;;;;18.51;100.00;96875.41;5052352;28;20202;-84
2021/07/27 03:41:08;;;;;;;4.47;4.17;;;;;;;18.39;100.00;96866.31;5051621;28;20202;-84
2021/07/27 03:43:36;;;;;;;7.53;4.33;;;;;;;18.54;100.00;96880.34;5051975;28;20205;-84
2021/07/27 03:46:03;;;;;;;4.53;3.93;;;;;;;18.49;100.00;96878.25;5052134;28;20268;-85
2021/07/27 03:48:31;;;;;;;5.07;4.57;;;;;;;18.50;100.00;96877.25;5051504;28;20698;-84
2021/07/27 03:50:58;;;;;;;4.43;4.03;;;;;;;18.64;100.00;96880.84;5051801;28;20279;-84
2021/07/27 03:53:26;;;;;;;20.47;18.40;;;;;;;18.51;100.00;96875.41;5051883;28;20304;-83
2021/07/27 03:55:54;;;;;;;17.20;14.37;;;;;;;18.43;100.00;96878.25;5052254;28;20209;-84
2021/07/27 03:58:23;;;;;;;155.13;118.83;;;;;;;18.45;100.00;96881.50;5051395;28;20288;-84
2021/07/27 04:00:50;;;;;;;29.50;24.10;;;;;;;18.55;100.00;96882.00;5038021;28;20206;-85
2021/07/27 04:03:17;;;;;;;8.97;7.47;;;;;;;18.32;100.00;96884.06;5032058;28;20278;-85
2021/07/27 04:05:44;;;;;;;15.07;13.30;;;;;;;18.48;100.00;96884.59;5031962;28;20195;-86
2021/07/27 04:08:12;;;;;;;20.90;18.90;;;;;;;18.53;100.00;96884.00;5031813;28;20233;-81
2021/07/27 04:10:39;;;;;;;10.23;8.70;;;;;;;18.49;100.00;96893.41;5031616;28;20234;-83
2021/07/27 04:13:08;;;;;;;8.10;7.30;;;;;;;18.62;100.00;96898.84;5031712;28;20249;-83
2021/07/27 04:15:45;;;;;;;6.10;5.50;;;;;;;18.55;100.00;96905.94;5031392;28;20195;-83
2021/07/27 04:18:12;;;;;;;9.70;6.30;;;;;;;18.57;100.00;96901.28;5032477;28;20221;-84
2021/07/27 04:20:39;;;;;;;6.50;5.90;;;;;;;18.70;100.00;96905.84;5050944;28;20205;-82
2021/07/27 04:23:06;;;;;;;6.20;4.80;;;;;;;18.71;100.00;96896.88;5050359;28;20202;-83
2021/07/27 04:25:34;;;;;;;9.20;7.67;;;;;;;18.73;100.00;96892.19;5051440;28;20198;-83
2021/07/27 04:28:01;;;;;;;14.43;6.70;;;;;;;18.64;100.00;96890.69;5051622;28;20204;-83
2021/07/27 04:30:30;;;;;;;8.20;7.40;;;;;;;18.88;100.00;96892.09;5051452;28;20194;-83
2021/07/27 04:32:57;;;;;;;10.60;6.07;;;;;;;18.95;100.00;96896.44;5051517;28;20280;-83
2021/07/27 04:35:25;;;;;;;6.63;6.03;;;;;;;18.92;100.00;96888.00;5050500;28;20230;-83
2021/07/27 04:37:53;;;;;;;6.00;5.50;;;;;;;18.86;100.00;96880.81;5050494;28;20197;-83
2021/07/27 04:40:22;;;;;;;13.30;7.27;;;;;;;18.91;100.00;96873.88;5051416;28;20202;-83
2021/07/27 04:42:49;;;;;;;8.07;7.27;;;;;;;18.97;100.00;96869.59;5051530;28;20639;-83
2021/07/27 04:45:17;;;;;;;8.30;7.23;;;;;;;19.05;100.00;96871.25;5054098;28;20198;-83
2021/07/27 04:47:46;;;;;;;7.97;5.40;;;;;;;19.03;100.00;96876.81;5054905;28;20316;-83
2021/07/27 04:50:13;;;;;;;6.73;4.40;;;;;;;19.12;100.00;96883.63;5055483;28;20230;-83
2021/07/27 04:52:49;;;;;;;72.07;55.30;;;;;;;19.22;100.00;96884.09;5055020;28;20674;-83
2021/07/27 04:55:16;;;;;;;16.37;11.33;;;;;;;19.27;100.00;96890.66;5054871;28;20273;-83
2021/07/27 04:57:43;;;;;;;10.07;6.03;;;;;;;19.43;100.00;96903.63;5054861;28;20229;-83
2021/07/27 05:00:17;;;;;;;4.10;3.67;;;;;;;19.66;100.00;96912.16;5054952;28;20745;-83
2021/07/27 05:02:46;;;;;;;6.73;4.67;;;;;;;19.81;100.00;96913.84;5054441;28;20190;-83
2021/07/27 05:05:13;;;;;;;6.37;5.77;;;;;;;19.91;100.00;96916.94;5055081;28;20233;-83
2021/07/27 05:07:41;;;;;;;6.13;5.53;;;;;;;20.02;100.00;96913.72;5054917;28;20233;-83
2021/07/27 05:10:09;;;;;;;6.83;6.23;;;;;;;20.06;100.00;96911.47;5054728;28;20205;-83
2021/07/27 05:12:37;;;;;;;4.97;4.47;;;;;;;20.20;100.00;96918.47;5054302;28;20267;-83
2021/07/27 05:15:06;;;;;;;6.10;5.20;;;;;;;20.35;100.00;96915.59;5054872;28;20593;-83
2021/07/27 05:17:33;;;;;;;11.97;5.67;;;;;;;20.40;100.00;96913.97;5054337;28;20210;-83
2021/07/27 05:20:03;;;;;;;5.80;4.50;;;;;;;20.52;100.00;96911.53;5054538;28;20285;-83
2021/07/27 05:22:30;;;;;;;4.53;4.13;;;;;;;20.60;100.00;96916.66;5054256;28;20394;-83
2021/07/27 05:24:57;;;;;;;16.33;14.23;;;;;;;20.63;100.00;96918.09;5054420;28;20236;-83
2021/07/27 05:27:26;;;;;;;24.57;18.33;;;;;;;20.77;100.00;96917.06;5054511;28;20221;-83
2021/07/27 05:29:54;;;;;;;6.03;5.43;;;;;;;20.88;100.00;96921.75;5054418;28;20194;-83
2021/07/27 05:32:22;;;;;;;4.50;4.20;;;;;;;21.05;100.00;96924.00;5054049;28;20280;-83
2021/07/27 05:34:49;;;;;;;5.37;4.97;;;;;;;21.20;100.00;96924.59;5054444;28;20218;-83
2021/07/27 05:37:18;;;;;;;5.03;4.63;;;;;;;21.30;100.00;96919.63;5054022;28;20229;-83
2021/07/27 05:39:46;;;;;;;9.03;4.87;;;;;;;21.46;100.00;96934.41;5054244;28;20277;-83
2021/07/27 05:42:13;;;;;;;4.47;4.07;;;;;;;21.60;100.00;96937.84;5053736;28;20198;-83
2021/07/27 05:44:40;;;;;;;7.10;4.63;;;;;;;21.72;100.00;96938.03;5054051;28;20284;-83
2021/07/27 05:47:08;;;;;;;5.23;4.83;;;;;;;21.88;100.00;96940.19;5053653;28;20714;-83
2021/07/27 05:49:37;;;;;;;6.47;4.50;;;;;;;22.02;100.00;96938.28;5054095;28;20229;-83
2021/07/27 05:52:05;;;;;;;4.63;4.23;;;;;;;22.20;100.00;96938.44;5053725;28;20194;-83
2021/07/27 05:54:34;;;;;;;4.90;4.50;;;;;;;22.32;100.00;96930.50;5053742;28;20222;-83
2021/07/27 05:57:01;;;;;;;5.10;3.70;;;;;;;22.51;100.00;96931.38;5053015;28;20251;-83
2021/07/27 05:59:28;;;;;;;4.00;3.60;;;;;;;22.62;100.00;96943.25;5054071;28;20194;-83
2021/07/27 06:01:56;;;;;;;4.97;3.63;;;;;;;22.76;100.00;96945.63;5053846;28;20624;-83
2021/07/27 06:04:23;;;;;;;6.17;4.27;;;;;;;22.89;100.00;96941.19;5053815;28;20198;-83
2021/07/27 06:06:50;;;;;;;4.20;3.90;;;;;;;23.02;100.00;96947.25;5053461;28;20284;-83
2021/07/27 06:09:18;;;;;;;4.17;3.73;;;;;;;23.21;100.00;96947.31;5053926;28;20680;-83
2021/07/27 06:11:46;;;;;;;7.43;3.70;;;;;;;23.35;100.00;96945.31;5053336;28;20201;-83
2021/07/27 06:14:14;;;;;;;4.23;3.60;;;;;;;23.48;100.00;96943.31;5053466;28;20230;-84
2021/07/27 06:16:41;;;;;;;4.40;4.00;;;;;;;23.68;100.00;96953.00;5053242;28;20240;-83
2021/07/27 06:19:09;;;;;;;5.93;3.47;;;;;;;23.87;100.00;96951.94;5053421;28;20635;-83
2021/07/27 06:21:39;;;;;;;4.37;3.53;;;;;;;24.12;100.00;96948.31;5053141;28;20255;-83
2021/07/27 06:24:07;;;;;;;3.90;3.50;;;;;;;24.22;100.00;96948.59;5053602;28;20293;-84
2021/07/27 06:26:34;;;;;;;4.27;3.37;;;;;;;24.37;100.00;96950.84;5052828;28;20194;-83
2021/07/27 06:29:03;;;;;;;3.93;2.93;;;;;;;24.50;100.00;96949.84;5053492;28;20639;-84
2021/07/27 06:31:31;;;;;;;4.50;3.33;;;;;;;24.67;100.00;96946.25;5053300;28;20256;-84
2021/07/27 06:33:58;;;;;;;8.27;3.43;;;;;;;24.86;100.00;96936.22;5053190;28;20222;-84
2021/07/27 06:36:27;;;;;;;4.10;3.37;;;;;;;24.89;100.00;96946.50;5052954;28;20198;-84
2021/07/27 06:38:55;;;;;;;7.53;3.63;;;;;;;24.98;100.00;96948.88;5053324;28;20238;-84
2021/07/27 06:41:22;;;;;;;3.47;3.17;;;;;;;25.13;100.00;96946.56;5052859;28;20280;-84
2021/07/27 06:43:49;;;;;;;3.93;3.43;;;;;;;25.40;100.00;96940.69;5053185;28;20205;-84
2021/07/27 06:46:18;;;;;;;3.53;3.27;;;;;;;25.61;100.00;96940.88;5052405;28;20253;-83
2021/07/27 06:48:45;;;;;;;3.37;3.10;;;;;;;25.68;100.00;96932.66;5052790;28;20229;-84
2021/07/27 06:51:14;;;;;;;7.47;4.00;;;;;;;25.79;100.00;96929.16;5053061;28;20280;-84
2021/07/27 06:53:42;;;;;;;6.17;3.53;;;;;;;25.94;100.00;96936.69;5052482;28;20275;-84
2021/07/27 06:56:11;;;;;;;3.40;3.10;;;;;;;26.19;100.00;96932.88;5052736;28;20642;-84
2021/07/27 06:58:40;;;;;;;9.73;4.20;;;;;;;26.42;100.00;96934.59;5052753;28;20284;-84
2021/07/27 07:01:08;;;;;;;4.80;4.00;;;;;;;26.60;100.00;96931.72;5052921;28;20267;-84
2021/07/27 07:03:38;;;;;;;4.03;3.30;;;;;;;26.82;100.00;96931.00;5052477;28;20202;-84
2021/07/27 07:06:05;;;;;;;5.70;3.95;;;;;;;27.02;100.00;96934.81;5052406;28;20264;-84
2021/07/27 07:08:33;;;;;;;5.10;3.38;;;;;;;26.97;100.00;96929.34;5052184;28;20688;-84
2021/07/27 07:11:01;;;;;;;5.40;3.58;;;;;;;27.03;100.00;96920.25;5052795;28;20225;-84
2021/07/27 07:13:29;;;;;;;18.95;16.63;;;;;;;27.20;100.00;96925.66;5052448;28;20280;-84
2021/07/27 07:15:56;;;;;;;5.93;5.28;;;;;;;27.38;100.00;96923.75;5052631;28;20198;-84
2021/07/27 07:18:24;;;;;;;5.28;4.03;;;;;;;27.29;100.00;96930.63;5052599;28;20233;-85
2021/07/27 07:20:53;;;;;;;6.47;4.35;;;;;;;27.53;100.00;96933.91;5052301;28;20421;-85
2021/07/27 07:23:21;;;;;;;4.32;3.30;;;;;;;27.74;100.00;96931.25;5052009;28;20197;-84
2021/07/27 07:25:50;;;;;;;4.18;3.63;;;;;;;27.92;100.00;96942.81;5052259;28;20237;-84
2021/07/27 07:28:20;;;;;;;3.40;3.13;;;;;;;28.00;100.00;96928.84;5052565;28;20221;-85
2021/07/27 07:30:47;;;;;;;5.32;4.05;;;;;;;28.29;100.00;96926.69;5052490;28;20210;-85
2021/07/27 07:33:15;;;;;;;7.00;3.67;;;;;;;28.47;100.00;96932.84;5052341;28;20201;-85
2021/07/27 07:35:43;;;;;;;4.68;4.35;;;;;;;28.50;100.00;96943.97;5052127;28;20304;-84
2021/07/27 07:38:11;;;;;;;6.10;4.07;;;;;;;28.63;100.00;96942.72;5051826;28;20244;-85
2021/07/27 07:40:39;;;;;;;4.38;3.85;;;;;;;28.88;100.00;96934.00;5052018;28;20248;-85
2021/07/27 07:43:06;;;;;;;6.40;3.35;;;;;;;29.01;100.00;96936.28;5051589;28;20247;-85
2021/07/27 07:45:33;;;;;;;5.10;4.57;;;;;;;29.45;100.00;96925.19;5052014;28;20194;-85
2021/07/27 07:48:00;;;;;;;3.95;3.58;;;;;;;29.33;100.00;96935.41;5051766;28;20244;-85
2021/07/27 07:50:29;;;;;;;5.38;3.10;;;;;;;29.63;100.00;96926.66;5051952;28;20237;-84
2021/07/27 07:53:00;;;;;;;6.00;3.75;;;;;;;29.30;100.00;96914.25;5051527;28;20601;-84
2021/07/27 07:55:29;;;;;;;5.53;3.53;;;;;;;29.43;100.00;96919.22;5052077;28;20221;-85
2021/07/27 07:57:57;;;;;;;3.70;3.40;;;;;;;29.14;100.00;96926.91;5051696;28;20225;-85
2021/07/27 08:00:25;;;;;;;3.45;3.22;;;;;;;29.70;100.00;96927.22;5051824;28;20249;-85
2021/07/27 08:02:52;;;;;;;4.25;3.33;;;;;;;29.91;100.00;96940.84;5051783;28;20643;-85
2021/07/27 08:05:20;;;;;;;4.55;3.60;;;;;;;30.15;100.00;96933.06;5052079;28;20280;-85
2021/07/27 08:07:47;;;;;;;5.50;3.70;;;;;;;30.16;100.00;96935.50;5051818;28;20237;-86
2021/07/27 08:10:15;;;;;;;3.67;3.47;;;;;;;30.27;100.00;96934.47;5051799;28;20240;-86
2021/07/27 08:12:46;;;;;;;3.92;3.63;;;;;;;29.92;100.00;96937.84;5051577;28;20211;-85
2021/07/27 08:15:14;;;;;;;4.03;3.60;;;;;;;30.24;100.00;96940.44;5051399;28;20213;-86
2021/07/27 08:17:42;;;;;;;3.50;3.20;;;;;;;30.35;100.00;96941.28;5051502;28;20293;-85
2021/07/27 08:20:10;;;;;;;4.13;3.55;;;;;;;30.53;100.00;96940.75;5054562;28;20198;-86
2021/07/27 08:22:39;;;;;;;7.70;3.67;;;;;;;30.57;100.00;96938.31;5055482;28;20193;-85
2021/07/27 08:25:08;;;;;;;4.45;3.40;;;;;;;30.88;100.00;96933.72;5055413;28;20190;-86
2021/07/27 08:27:35;;;;;;;5.80;3.88;;;;;;;30.54;100.00;96926.09;5055441;28;20197;-85
2021/07/27 08:30:04;;;;;;;3.83;3.53;;;;;;;30.26;100.00;96929.31;5055752;28;20284;-86
2021/07/27 08:32:31;;;;;;;7.60;3.88;;;;;;;30.50;100.00;96918.78;5055408;28;20285;-86
2021/07/27 08:34:59;;;;;;;6.43;4.10;;;;;;;30.61;100.00;96914.16;5055124;28;20257;-86
2021/07/27 08:37:27;;;;;;;3.78;3.42;;;;;;;30.76;100.00;96922.34;5055356;28;20240;-85
2021/07/27 08:39:59;;;;;;;6.38;4.20;;;;;;;30.46;100.00;96921.22;5055310;28;20228;-85
2021/07/27 08:42:29;;;;;;;3.95;3.47;;;;;;;30.51;100.00;96918.47;5055060;28;20197;-86
2021/07/27 08:44:58;;;;;;;4.30;3.90;;;;;;;30.52;100.00;96922.84;5055376;28;20281;-85
2021/07/27 08:47:28;;;;;;;5.03;3.88;;;;;;;30.39;100.00;96917.13;5054536;28;20311;-86
2021/07/27 08:49:56;;;;;;;6.72;4.03;;;;;;;30.67;100.00;96922.03;5055162;28;20197;-86
2021/07/27 08:52:24;;;;;;;6.00;4.05;;;;;;;30.70;100.00;96913.34;5055055;28;20237;-85
2021/07/27 08:54:53;;;;;;;7.45;4.00;;;;;;;30.90;100.00;96920.72;5054999;28;20299;-86
2021/07/27 08:57:20;;;;;;;7.03;4.07;;;;;;;30.81;100.00;96922.31;5054701;28;20195;-85
2021/07/27 08:59:48;;;;;;;4.13;3.83;;;;;;;30.81;100.00;96929.66;5055384;28;20201;-86
2021/07/27 09:02:25;;;;;;;5.43;4.00;;;;;;;30.69;100.00;96929.88;5055054;28;20252;-86
2021/07/27 09:05:04;;;;;;;4.00;3.70;;;;;;;30.98;100.00;96922.03;5054920;28;20186;-86
2021/07/27 09:07:32;;;;;;;5.88;3.50;;;;;;;31.05;100.00;96924.47;5054687;28;20221;-86
2021/07/27 09:09:59;;;;;;;5.05;4.55;;;;;;;30.82;100.00;96923.94;5055044;28;20225;-86
2021/07/27 09:12:26;;;;;;;4.07;3.67;;;;;;;30.66;100.00;96925.84;5054797;28;20194;-86
2021/07/27 09:14:54;;;;;;;4.97;3.58;;;;;;;30.74;100.00;96928.00;5054578;28;20276;-85
2021/07/27 09:17:26;;;;;;;5.30;4.10;;;;;;;30.88;100.00;96922.88;5054477;28;20202;-86
2021/07/27 09:19:56;;;;;;;5.75;3.75;;;;;;;30.96;100.00;96914.16;5055055;28;20208;-86
2021/07/27 09:22:23;;;;;;;5.30;3.83;;;;;;;30.92;100.00;96918.50;5054639;28;20556;-86
2021/07/27 09:24:50;;;;;;;4.47;4.07;;;;;;;30.96;100.00;96914.16;5054281;28;20240;-86
2021/07/27 09:27:28;;;;;;;4.60;4.20;;;;;;;31.18;100.00;96921.22;5054334;28;20268;-86
2021/07/27 09:29:55;;;;;;;4.20;3.85;;;;;;;31.00;100.00;96920.69;5053783;28;20190;-86
2021/07/27 09:32:22;;;;;;;7.82;3.78;;;;;;;31.06;100.00;96917.97;5053578;28;20233;-86
2021/07/27 09:34:50;;;;;;;5.25;3.83;;;;;;;31.21;100.00;96915.19;5054042;28;20225;-86
2021/07/27 09:37:19;;;;;;;4.38;3.97;;;;;;;31.49;100.00;96913.81;5054435;28;20237;-86
2021/07/27 09:39:46;;;;;;;4.88;4.00;;;;;;;31.58;100.00;96916.75;5054279;28;20198;-86
2021/07/27 09:42:15;;;;;;;5.80;4.25;;;;;;;31.49;100.00;96913.81;5053791;28;20255;-85
2021/07/27 09:44:43;;;;;;;4.28;3.97;;;;;;;31.45;100.00;96913.56;5054454;28;20648;-86
2021/07/27 09:47:10;;;;;;;4.63;4.22;;;;;;;31.58;100.00;96911.31;5053813;28;20238;-86
2021/07/27 09:49:40;;;;;;;4.93;4.13;;;;;;;31.32;100.00;96914.13;5054458;28;20631;-87
2021/07/27 09:52:08;;;;;;;5.43;4.30;;;;;;;31.69;100.00;96915.63;5054220;28;20586;-86
2021/07/27 09:54:39;;;;;;;6.18;3.75;;;;;;;31.94;100.00;96906.59;5053875;28;20221;-86
2021/07/27 09:57:06;;;;;;;4.75;3.85;;;;;;;31.93;100.00;96916.63;5053887;28;20638;-86
2021/07/27 09:59:36;;;;;;;5.32;4.07;;;;;;;31.96;100.00;96913.34;5053754;28;20285;-87
2021/07/27 10:02:05;;;;;;;5.32;3.85;;;;;;;31.90;100.00;96919.09;5053613;28;20201;-86
2021/07/27 10:04:36;;;;;;;5.45;3.85;;;;;;;31.95;100.00;96908.22;5053781;28;20205;-86
2021/07/27 10:07:04;;;;;;;5.10;4.28;;;;;;;31.79;100.00;96921.00;5053889;28;20188;-87
2021/07/27 10:09:33;;;;;;;5.63;4.35;;;;;;;32.08;100.00;96918.47;5054132;28;20578;-86
2021/07/27 10:12:09;;;;;;;4.28;3.95;;;;;;;31.96;100.00;96916.06;5053404;28;20252;-87
2021/07/27 10:14:42;;;;;;;4.82;4.43;;;;;;;32.03;100.00;96914.97;5053905;28;20225;-87
2021/07/27 10:17:09;;;;;;;5.60;3.80;;;;;;;32.04;100.00;96909.25;5053387;28;20288;-87
2021/07/27 10:19:42;;;;;;;5.40;4.15;;;;;;;32.29;100.00;96913.72;5053785;28;20642;-86
2021/07/27 10:22:11;;;;;;;4.68;3.72;;;;;;;32.45;100.00;96906.28;5053232;28;20221;-86
2021/07/27 10:24:41;;;;;;;4.38;3.97;;;;;;;32.47;100.00;96906.00;5053679;28;20585;-87
2021/07/27 10:27:16;;;;;;;4.40;4.10;;;;;;;32.23;100.00;96897.72;5053270;28;20201;-87
2021/07/27 10:29:43;;;;;;;4.22;3.83;;;;;;;32.21;100.00;96895.25;5053130;28;20200;-86
2021/07/27 10:32:16;;;;;;;7.22;5.20;;;;;;;32.20;100.00;96897.16;5053144;28;20255;-86
2021/07/27 10:34:44;;;;;;;4.10;3.80;;;;;;;32.30;100.00;96899.00;5053187;28;20208;-87
2021/07/27 10:37:13;;;;;;;6.38;3.92;;;;;;;32.54;100.00;96899.13;5052839;28;20213;-87
2021/07/27 10:39:51;;;;;;;4.70;4.07;;;;;;;32.12;100.00;96895.06;5053197;28;20289;-86
2021/07/27 10:42:21;;;;;;;7.07;3.67;;;;;;;32.29;100.00;96891.97;5052640;28;20186;-87
2021/07/27 10:44:49;;;;;;;7.75;4.55;;;;;;;32.27;100.00;96894.13;5053133;28;20202;-87
2021/07/27 10:47:21;;;;;;;4.75;4.20;;;;;;;32.24;100.00;96893.88;5052627;28;20321;-87
2021/07/27 10:49:59;;;;;;;4.47;4.13;;;;;;;32.54;100.00;96893.69;5053368;28;20641;-87
2021/07/27 10:52:27;;;;;;;4.57;3.67;;;;;;;32.44;100.00;96883.69;5052810;28;20189;-87
2021/07/27 10:54:58;;;;;;;5.07;4.68;;;;;;;32.71;100.00;96884.31;5052832;28;20797;-86
2021/07/27 10:57:35;;;;;;;4.70;3.70;;;;;;;32.74;100.00;96879.13;5052640;28;20186;-87
2021/07/27 11:00:03;;;;;;;5.20;4.80;;;;;;;32.83;100.00;96880.09;5052961;28;20288;-87
2021/07/27 11:02:30;;;;;;;4.32;3.63;;;;;;;32.62;100.00;96879.47;5052593;28;20255;-87
2021/07/27 11:04:58;;;;;;;6.07;4.00;;;;;;;32.61;100.00;96868.88;5053148;28;20262;-87
2021/07/27 11:07:26;;;;;;;4.47;3.72;;;;;;;33.02;100.00;96866.63;5052615;28;20288;-86
2021/07/27 11:09:54;;;;;;;4.50;4.10;;;;;;;32.81;100.00;96865.97;5052763;28;20618;-87
2021/07/27 11:12:33;;;;;;;4.32;4.03;;;;;;;32.58;100.00;96866.72;5052588;28;20198;-87
2021/07/27 11:15:08;;;;;;;7.85;4.13;;;;;;;32.60;100.00;96870.78;5052871;28;20705;-86
2021/07/27 11:17:37;;;;;;;4.93;4.35;;;;;;;32.70;100.00;96859.00;5052452;28;20704;-87
2021/07/27 11:20:06;;;;;;;5.47;3.92;;;;;;;32.73;100.00;96863.06;5052373;28;20201;-87
2021/07/27 11:22:34;;;;;;;7.00;4.95;;;;;;;32.62;100.00;96854.16;5052424;28;20678;-87
2021/07/27 11:25:03;;;;;;;6.43;4.57;;;;;;;32.95;100.00;96851.69;5052536;28;20197;-87
2021/07/27 11:27:33;;;;;;;5.13;4.47;;;;;;;32.99;100.00;96850.03;5052255;28;20736;-86
2021/07/27 11:30:04;;;;;;;7.68;4.35;;;;;;;33.13;100.00;96856.41;5052485;28;20633;-87
2021/07/27 11:32:39;;;;;;;14.80;5.07;;;;;;;32.92;100.00;96853.88;5052403;28;20225;-87
2021/07/27 11:35:07;;;;;;;6.82;4.72;;;;;;;32.70;100.00;96850.84;5052182;28;20275;-87
2021/07/27 11:37:35;;;;;;;4.95;4.10;;;;;;;33.08;100.00;96849.13;5052105;28;20293;-87
2021/07/27 11:40:02;;;;;;;5.00;4.60;;;;;;;33.14;100.00;96849.88;5052256;28;20300;-87
2021/07/27 11:42:32;;;;;;;5.50;3.92;;;;;;;33.17;100.00;96843.84;5052001;28;20292;-87
2021/07/27 11:45:01;;;;;;;4.60;4.25;;;;;;;33.16;100.00;96844.94;5052479;28;20272;-87
2021/07/27 11:47:41;;;;;;;4.80;4.40;;;;;;;33.06;100.00;96859.47;5051637;28;20236;-87
2021/07/27 11:50:13;;;;;;;5.30;4.60;;;;;;;33.01;100.00;96848.66;5052354;28;20186;-87